Time;durP1;ratioP1;P1;durP2;ratioP2;P2;SDS_P1;SDS_P2;PMS_P1;PMS_P2;Temp;Humidity;BMP_temperature;BMP_pressure;BME280_temperature;BME280_humidity;BME280_pressure;Samples;Min_cycle;Max_cycle;Signal;HPM_P1;HPM_P2
2023/04/07 00:01:15;;;;;;;35.42;22.55;;;7.30;99.90;;;;;;5106452;28;20046;-70
2023/04/07 00:03:42;;;;;;;47.33;25.40;;;7.30;99.90;;;;;;5109803;28;20043;-70
2023/04/07 00:06:08;;;;;;;38.42;23.10;;;7.30;99.90;;;;;;5110735;27;20490;-70
2023/04/07 00:08:33;;;;;;;51.70;25.83;;;7.30;99.90;;;;;;5106143;28;20046;-70
2023/04/07 00:10:59;;;;;;;40.33;23.80;;;7.30;99.90;;;;;;5104947;27;20475;-70
2023/04/07 00:13:25;;;;;;;55.53;25.70;;;7.40;99.90;;;;;;5117920;27;20039;-70
2023/04/07 00:15:51;;;;;;;42.42;24.30;;;7.40;99.90;;;;;;5110022;28;20579;-70
2023/04/07 00:18:17;;;;;;;47.80;24.65;;;7.30;99.90;;;;;;5112288;27;20035;-70
2023/04/07 00:20:42;;;;;;;65.47;28.15;;;7.30;99.90;;;;;;5107827;27;20031;-70
2023/04/07 00:23:08;;;;;;;55.70;27.38;;;7.40;99.90;;;;;;5112782;27;20043;-70
2023/04/07 00:25:33;;;;;;;63.17;28.20;;;7.30;99.90;;;;;;5114531;27;20046;-70
2023/04/07 00:27:59;;;;;;;60.80;26.25;;;7.40;99.90;;;;;;5108467;27;20054;-70
2023/04/07 00:30:25;;;;;;;50.15;25.65;;;7.30;99.90;;;;;;5127079;27;20092;-70
2023/04/07 00:32:51;;;;;;;50.05;26.70;;;7.40;99.90;;;;;;5113550;27;20491;-70
2023/04/07 00:35:17;;;;;;;46.35;26.30;;;7.30;99.90;;;;;;5113527;27;21017;-70
2023/04/07 00:37:42;;;;;;;39.65;24.23;;;7.30;99.90;;;;;;5111025;27;20398;-70
2023/04/07 00:40:08;;;;;;;88.30;30.23;;;7.40;99.90;;;;;;5110838;27;20047;-70
2023/04/07 00:42:34;;;;;;;49.17;25.98;;;7.40;99.90;;;;;;5130478;27;20061;-70
2023/04/07 00:45:00;;;;;;;53.60;26.20;;;7.40;99.90;;;;;;5110295;27;20375;-70
2023/04/07 00:47:26;;;;;;;48.47;26.65;;;7.40;99.90;;;;;;5113317;27;20095;-70
2023/04/07 00:49:51;;;;;;;51.35;26.33;;;7.40;99.90;;;;;;5112672;27;20043;-70
2023/04/07 00:52:26;;;;;;;44.78;25.27;;;7.40;99.90;;;;;;5114290;27;20042;-70
2023/04/07 00:54:53;;;;;;;67.70;28.30;;;7.40;99.90;;;;;;5110095;27;20074;-70
2023/04/07 00:57:19;;;;;;;40.28;23.33;;;7.40;99.90;;;;;;5133356;27;20027;-70
2023/04/07 00:59:44;;;;;;;48.65;26.38;;;7.50;99.90;;;;;;5108974;27;20091;-70
2023/04/07 01:02:17;;;;;;;46.42;26.02;;;7.40;99.90;;;;;;5112141;27;20035;-70
2023/04/07 01:04:53;;;;;;;42.33;25.35;;;7.40;99.90;;;;;;5108070;27;20493;-70
2023/04/07 01:07:26;;;;;;;57.80;27.63;;;7.40;99.90;;;;;;5113709;27;20050;-70
2023/04/07 01:10:02;;;;;;;42.33;25.38;;;7.50;99.90;;;;;;5112544;27;20043;-70
2023/04/07 01:12:46;;;;;;;54.78;26.63;;;7.50;99.90;;;;;;5109809;27;20031;-70
2023/04/07 01:15:12;;;;;;;46.50;25.85;;;7.50;99.90;;;;;;5110884;27;20039;-70
2023/04/07 01:18:00;;;;;;;67.10;29.00;;;7.50;99.90;;;;;;5110630;27;20497;-70
2023/04/07 01:20:29;;;;;;;63.55;28.60;;;7.40;99.90;;;;;;5084655;27;20421;-70
2023/04/07 01:22:57;;;;;;;68.80;28.00;;;7.40;99.90;;;;;;5127039;27;20035;-70
2023/04/07 01:25:59;;;;;;;80.82;29.83;;;7.50;99.90;;;;;;5108408;27;20035;-70
2023/04/07 01:28:42;;;;;;;37.78;24.13;;;7.40;99.90;;;;;;5111255;27;20070;-70
2023/04/07 01:31:11;;;;;;;46.92;25.20;;;7.40;99.90;;;;;;5111130;27;20038;-70
2023/04/07 01:33:37;;;;;;;41.15;24.98;;;7.50;99.90;;;;;;5106734;27;20041;-70
2023/04/07 01:36:05;;;;;;;51.55;27.30;;;7.50;99.90;;;;;;5113326;27;20043;-70
2023/04/07 01:38:32;;;;;;;54.17;27.50;;;7.50;99.90;;;;;;5111371;27;20046;-70
2023/04/07 01:40:59;;;;;;;45.40;26.30;;;7.40;99.90;;;;;;5112272;27;20039;-70
2023/04/07 01:43:27;;;;;;;48.13;27.00;;;7.50;99.90;;;;;;5102768;27;20146;-70
2023/04/07 01:45:54;;;;;;;42.38;24.42;;;7.50;99.90;;;;;;5112946;27;20035;-70
2023/04/07 01:48:20;;;;;;;49.13;27.27;;;7.50;99.90;;;;;;5093463;27;20899;-70
2023/04/07 01:50:46;;;;;;;68.85;28.80;;;7.50;99.90;;;;;;5112776;27;20130;-70
2023/04/07 01:53:14;;;;;;;47.95;26.88;;;7.50;99.90;;;;;;5107790;27;20239;-70
2023/04/07 01:55:41;;;;;;;78.40;29.52;;;7.50;99.90;;;;;;5126592;27;20054;-70
2023/04/07 01:58:07;;;;;;;57.28;27.48;;;7.50;99.90;;;;;;5106080;27;20127;-70
2023/04/07 02:00:35;;;;;;;64.93;28.90;;;7.50;99.90;;;;;;5110680;27;20122;-70
2023/04/07 02:03:22;;;;;;;57.45;28.90;;;7.50;99.90;;;;;;5105617;27;20386;-70
2023/04/07 02:05:51;;;;;;;50.72;26.65;;;7.50;99.90;;;;;;5101200;27;20035;-70
2023/04/07 02:08:18;;;;;;;43.97;26.15;;;7.50;99.90;;;;;;5107391;27;20307;-70
2023/04/07 02:10:47;;;;;;;74.60;29.02;;;7.50;99.90;;;;;;5111980;27;20051;-70
2023/04/07 02:13:17;;;;;;;61.05;27.90;;;7.60;99.90;;;;;;5110218;27;20099;-70
2023/04/07 02:15:44;;;;;;;45.08;25.25;;;7.50;99.90;;;;;;5108042;28;20040;-70
2023/04/07 02:18:13;;;;;;;47.65;27.02;;;7.50;99.90;;;;;;5107353;27;20370;-70
2023/04/07 02:20:42;;;;;;;44.80;25.88;;;7.50;99.90;;;;;;5110019;27;20395;-70
2023/04/07 02:23:08;;;;;;;40.67;24.70;;;7.50;99.90;;;;;;5112307;27;20080;-70
2023/04/07 02:25:36;;;;;;;41.80;24.48;;;7.60;99.90;;;;;;5109050;27;20031;-70
2023/04/07 02:28:03;;;;;;;78.80;30.40;;;7.50;99.90;;;;;;5111824;27;20043;-70
2023/04/07 02:30:29;;;;;;;42.22;25.00;;;7.50;99.90;;;;;;5104439;27;20043;-70
2023/04/07 02:32:55;;;;;;;55.13;27.20;;;7.50;99.90;;;;;;5129964;27;20047;-70
2023/04/07 02:35:21;;;;;;;85.00;29.98;;;7.60;99.90;;;;;;5104539;27;20062;-70
2023/04/07 02:37:47;;;;;;;45.20;24.50;;;7.60;99.90;;;;;;5103813;27;20035;-70
2023/04/07 02:40:13;;;;;;;65.60;28.27;;;7.50;99.90;;;;;;5110538;27;20061;-70
2023/04/07 02:42:39;;;;;;;105.28;32.55;;;7.50;99.90;;;;;;5122691;27;20043;-70
2023/04/07 02:45:06;;;;;;;61.70;26.92;;;7.60;99.90;;;;;;5105090;27;20099;-70
2023/04/07 02:47:33;;;;;;;50.03;26.63;;;7.50;99.90;;;;;;5097246;27;20047;-70
2023/04/07 02:49:58;;;;;;;41.58;24.58;;;7.50;99.90;;;;;;5124725;27;20540;-70
2023/04/07 02:52:24;;;;;;;41.13;25.15;;;7.60;99.90;;;;;;5106586;27;20066;-70
2023/04/07 02:54:50;;;;;;;62.25;27.63;;;7.50;99.90;;;;;;5106166;27;20035;-70
2023/04/07 02:57:15;;;;;;;77.22;28.98;;;7.50;99.90;;;;;;5102683;27;20031;-70
2023/04/07 02:59:41;;;;;;;45.28;25.45;;;7.50;99.90;;;;;;5104745;27;20045;-70
2023/04/07 03:02:06;;;;;;;42.78;25.55;;;7.60;99.90;;;;;;5104417;27;20046;-70
2023/04/07 03:04:33;;;;;;;80.82;29.55;;;7.60;99.90;;;;;;5102357;27;20066;-70
2023/04/07 03:06:58;;;;;;;111.15;32.92;;;7.60;99.90;;;;;;5108179;27;20050;-70
2023/04/07 03:09:24;;;;;;;48.47;26.60;;;7.60;99.90;;;;;;5103424;28;20043;-70
2023/04/07 03:11:49;;;;;;;120.18;32.28;;;7.60;99.90;;;;;;5123103;27;20031;-70
2023/04/07 03:14:15;;;;;;;49.38;25.98;;;7.60;99.90;;;;;;5103727;27;20043;-70
2023/04/07 03:16:41;;;;;;;64.28;28.23;;;7.60;99.90;;;;;;5108658;27;20126;-70
2023/04/07 03:19:07;;;;;;;60.25;27.75;;;7.60;99.90;;;;;;5105199;27;20043;-70
2023/04/07 03:21:33;;;;;;;65.15;27.85;;;7.60;99.90;;;;;;5105871;28;20074;-70
2023/04/07 03:23:59;;;;;;;68.65;27.42;;;7.60;99.90;;;;;;5105310;27;20027;-70
2023/04/07 03:26:26;;;;;;;49.40;26.42;;;7.60;99.90;;;;;;5106307;27;20035;-70
2023/04/07 03:28:51;;;;;;;91.78;31.08;;;7.60;99.90;;;;;;5106563;28;20039;-70
2023/04/07 03:31:17;;;;;;;45.50;25.23;;;7.60;99.90;;;;;;5101450;28;20146;-70
2023/04/07 03:33:43;;;;;;;97.47;29.30;;;7.50;99.90;;;;;;5102548;27;20442;-70
2023/04/07 03:36:08;;;;;;;61.75;27.85;;;7.50;99.90;;;;;;5104297;28;20046;-70
2023/04/07 03:38:34;;;;;;;74.57;28.48;;;7.60;99.90;;;;;;5105404;27;20062;-70
2023/04/07 03:40:59;;;;;;;62.40;26.45;;;7.60;99.90;;;;;;5100559;28;20039;-70
2023/04/07 03:43:25;;;;;;;70.65;26.83;;;7.60;99.90;;;;;;5106344;28;20047;-70
2023/04/07 03:45:52;;;;;;;49.08;26.35;;;7.60;99.90;;;;;;5121963;27;20043;-70
2023/04/07 03:48:18;;;;;;;58.50;27.98;;;7.60;99.90;;;;;;5101510;28;20428;-70
2023/04/07 03:50:45;;;;;;;84.32;31.38;;;7.60;99.90;;;;;;5105685;28;20449;-70
2023/04/07 03:53:10;;;;;;;50.97;26.33;;;7.70;99.90;;;;;;5106340;27;20397;-70
2023/04/07 03:55:36;;;;;;;73.70;29.00;;;7.60;99.90;;;;;;5110162;27;20043;-70
2023/04/07 03:58:01;;;;;;;42.25;24.75;;;7.60;99.90;;;;;;5107933;27;20594;-70
2023/04/07 04:00:27;;;;;;;74.05;29.17;;;7.60;99.90;;;;;;5108789;27;20035;-70
2023/04/07 04:02:52;;;;;;;45.17;25.17;;;7.60;99.90;;;;;;5109327;27;20509;-70
2023/04/07 04:05:18;;;;;;;75.18;28.33;;;7.60;99.90;;;;;;5110706;27;20035;-70
2023/04/07 04:07:44;;;;;;;42.72;24.42;;;7.70;99.90;;;;;;5110715;27;20042;-70
2023/04/07 04:10:10;;;;;;;42.15;24.90;;;7.60;99.90;;;;;;5109789;27;20067;-70
2023/04/07 04:12:36;;;;;;;60.85;27.38;;;7.60;99.90;;;;;;5106361;27;20065;-70
2023/04/07 04:15:01;;;;;;;52.90;25.50;;;7.60;99.90;;;;;;5109744;27;20074;-70
2023/04/07 04:17:27;;;;;;;48.67;25.30;;;7.60;99.90;;;;;;5112147;27;20038;-69
2023/04/07 04:19:53;;;;;;;40.13;23.40;;;7.60;99.90;;;;;;5109148;27;20042;-70
2023/04/07 04:22:18;;;;;;;39.75;23.70;;;7.60;99.90;;;;;;5105945;27;20478;-70
2023/04/07 04:24:44;;;;;;;38.20;22.85;;;7.60;99.90;;;;;;5107704;27;20049;-69
2023/04/07 04:27:10;;;;;;;43.22;23.92;;;7.60;99.90;;;;;;5111575;28;20032;-70
2023/04/07 04:29:35;;;;;;;38.05;23.10;;;7.70;99.90;;;;;;5108293;27;20043;-69
2023/04/07 04:32:01;;;;;;;35.33;21.85;;;7.70;99.90;;;;;;5126780;27;20379;-70
2023/04/07 04:34:26;;;;;;;40.83;23.17;;;7.70;99.90;;;;;;5106616;27;20043;-69
2023/04/07 04:36:52;;;;;;;41.65;23.00;;;7.70;99.90;;;;;;5104960;27;20088;-70
2023/04/07 04:39:17;;;;;;;36.05;22.52;;;7.70;99.90;;;;;;5128262;27;20031;-69
2023/04/07 04:41:44;;;;;;;42.28;23.35;;;7.70;99.90;;;;;;5103291;27;20470;-69
2023/04/07 04:44:10;;;;;;;48.13;22.83;;;7.70;99.90;;;;;;5091595;27;20446;-69
2023/04/07 04:46:35;;;;;;;33.15;21.17;;;7.70;99.90;;;;;;5106653;27;20069;-69
2023/04/07 04:49:01;;;;;;;35.60;21.23;;;7.70;99.90;;;;;;5106112;27;20401;-69
2023/04/07 04:51:27;;;;;;;33.88;20.65;;;7.70;99.90;;;;;;5104298;27;20314;-69
2023/04/07 04:53:52;;;;;;;35.97;21.42;;;7.70;99.90;;;;;;5107302;27;20474;-69
2023/04/07 04:56:18;;;;;;;34.65;20.85;;;7.60;99.90;;;;;;5109234;27;20035;-69
2023/04/07 04:58:46;;;;;;;39.50;21.00;;;7.60;99.90;;;;;;5106706;27;20087;-69
2023/04/07 05:01:12;;;;;;;30.17;19.30;;;7.70;99.90;;;;;;5104314;27;20064;-69
2023/04/07 05:03:38;;;;;;;35.97;20.38;;;7.70;99.90;;;;;;5107440;28;20114;-69
2023/04/07 05:06:04;;;;;;;33.40;19.80;;;7.60;99.90;;;;;;5102314;27;20038;-69
2023/04/07 05:08:30;;;;;;;32.63;20.20;;;7.70;99.90;;;;;;5109359;27;20031;-69
2023/04/07 05:10:56;;;;;;;32.72;20.38;;;7.70;99.90;;;;;;5108424;27;20165;-69
2023/04/07 05:13:22;;;;;;;34.63;20.67;;;7.60;99.90;;;;;;5107590;27;20086;-69
2023/04/07 05:15:47;;;;;;;44.20;21.88;;;7.60;99.90;;;;;;5106501;27;20083;-69
2023/04/07 05:18:13;;;;;;;35.78;20.65;;;7.70;99.90;;;;;;5108792;27;20099;-69
2023/04/07 05:20:39;;;;;;;35.05;19.95;;;7.60;99.90;;;;;;5108151;27;20039;-69
2023/04/07 05:23:04;;;;;;;35.67;20.45;;;7.70;99.90;;;;;;5106837;27;20064;-69
2023/04/07 05:25:30;;;;;;;35.13;20.70;;;7.60;99.90;;;;;;5107318;27;20461;-69
2023/04/07 05:27:58;;;;;;;37.50;21.33;;;7.70;99.90;;;;;;5108909;27;20142;-70
2023/04/07 05:30:24;;;;;;;31.08;19.45;;;7.70;99.90;;;;;;5107987;27;20086;-70
2023/04/07 05:32:49;;;;;;;32.83;19.80;;;7.70;99.90;;;;;;5101103;27;20066;-69
2023/04/07 05:35:15;;;;;;;32.70;19.48;;;7.70;99.90;;;;;;5104403;27;20174;-70
2023/04/07 05:37:41;;;;;;;35.05;20.08;;;7.70;99.90;;;;;;5108042;27;20110;-69
2023/04/07 05:40:07;;;;;;;31.83;18.98;;;7.70;99.90;;;;;;5104973;27;20397;-69
2023/04/07 05:42:32;;;;;;;29.25;18.95;;;7.70;99.90;;;;;;5107854;27;20429;-69
2023/04/07 05:44:58;;;;;;;29.45;18.52;;;7.70;99.90;;;;;;5104976;27;20046;-69
2023/04/07 05:47:23;;;;;;;30.10;18.77;;;7.70;99.90;;;;;;5110996;27;20080;-69
2023/04/07 05:49:49;;;;;;;35.08;19.52;;;7.70;99.90;;;;;;5104491;27;20084;-69
2023/04/07 05:52:14;;;;;;;30.38;19.13;;;7.70;99.90;;;;;;5107081;27;20049;-69
2023/04/07 05:54:40;;;;;;;31.35;18.55;;;7.70;99.90;;;;;;5105504;27;20041;-69
2023/04/07 05:57:09;;;;;;;29.98;18.33;;;7.70;99.90;;;;;;5107198;27;20061;-69
2023/04/07 05:59:35;;;;;;;31.20;18.42;;;7.80;99.90;;;;;;5102966;27;20114;-70
2023/04/07 06:02:01;;;;;;;28.15;17.65;;;7.80;99.90;;;;;;5106204;27;20050;-69
2023/04/07 06:04:27;;;;;;;32.08;18.63;;;7.80;99.90;;;;;;5102611;27;20422;-69
2023/04/07 06:06:54;;;;;;;34.13;19.10;;;7.80;99.90;;;;;;5102537;27;20118;-69
2023/04/07 06:09:20;;;;;;;26.08;17.40;;;7.80;99.90;;;;;;5105483;27;20499;-69
2023/04/07 06:11:46;;;;;;;28.05;18.05;;;7.80;99.90;;;;;;5110221;27;20051;-69
2023/04/07 06:14:12;;;;;;;29.02;18.45;;;7.80;99.90;;;;;;5106012;27;20050;-70
2023/04/07 06:16:37;;;;;;;36.22;18.45;;;7.80;99.90;;;;;;5105857;27;20557;-69
2023/04/07 06:19:03;;;;;;;25.67;16.45;;;7.90;99.90;;;;;;5104637;27;20489;-69
2023/04/07 06:21:29;;;;;;;24.88;16.17;;;7.90;99.90;;;;;;5108555;27;20117;-69
2023/04/07 06:23:55;;;;;;;26.30;16.73;;;7.90;99.90;;;;;;5105686;27;20043;-69
2023/04/07 06:26:20;;;;;;;23.13;15.18;;;7.90;99.90;;;;;;5106668;27;20046;-69
2023/04/07 06:28:46;;;;;;;25.85;16.70;;;7.90;99.90;;;;;;5116288;27;20092;-69
2023/04/07 06:31:11;;;;;;;21.90;15.32;;;7.90;99.90;;;;;;5102303;27;20126;-69
2023/04/07 06:33:37;;;;;;;28.75;16.67;;;7.90;99.90;;;;;;5107144;27;20490;-70
2023/04/07 06:36:03;;;;;;;24.13;15.60;;;7.90;99.90;;;;;;5101275;27;20046;-69
2023/04/07 06:38:28;;;;;;;23.90;16.25;;;8.00;99.90;;;;;;5103982;27;20040;-69
2023/04/07 06:40:54;;;;;;;24.40;16.05;;;8.00;99.90;;;;;;5105285;27;20047;-69
2023/04/07 06:43:20;;;;;;;21.92;15.35;;;8.00;99.90;;;;;;5108220;27;20031;-69
2023/04/07 06:45:45;;;;;;;22.13;15.02;;;8.00;99.90;;;;;;5116644;27;20066;-69
2023/04/07 06:48:11;;;;;;;21.33;14.80;;;8.00;99.90;;;;;;5102080;27;20046;-69
2023/04/07 06:50:37;;;;;;;22.85;15.10;;;8.00;99.90;;;;;;5100954;27;20107;-69
2023/04/07 06:53:03;;;;;;;21.95;14.55;;;8.10;99.90;;;;;;5100149;27;20073;-69
2023/04/07 06:55:29;;;;;;;21.85;14.60;;;8.10;99.90;;;;;;5097780;27;20085;-69
2023/04/07 06:57:54;;;;;;;20.20;14.38;;;8.10;99.90;;;;;;5102508;27;20042;-69
2023/04/07 07:00:21;;;;;;;22.35;14.60;;;8.10;99.90;;;;;;5100159;27;20070;-69
2023/04/07 07:02:48;;;;;;;21.63;13.98;;;8.10;99.90;;;;;;5099163;27;20035;-69
2023/04/07 07:05:13;;;;;;;21.90;14.48;;;8.20;99.90;;;;;;5102385;27;20045;-69
2023/04/07 07:07:39;;;;;;;21.88;15.40;;;8.10;99.90;;;;;;5105387;27;20126;-69
2023/04/07 07:10:07;;;;;;;22.50;14.55;;;8.20;99.90;;;;;;5105292;27;20130;-69
2023/04/07 07:12:33;;;;;;;21.02;14.38;;;8.20;99.90;;;;;;5103555;27;20711;-69
2023/04/07 07:14:58;;;;;;;23.35;14.05;;;8.20;99.90;;;;;;5099373;27;20043;-70
2023/04/07 07:17:24;;;;;;;21.67;14.00;;;8.10;99.90;;;;;;5107966;27;20560;-69
2023/04/07 07:19:49;;;;;;;18.75;13.95;;;8.20;99.90;;;;;;5103129;27;20047;-69
2023/04/07 07:22:15;;;;;;;21.52;14.00;;;8.20;99.90;;;;;;5088930;27;20051;-69
2023/04/07 07:24:40;;;;;;;25.58;15.65;;;8.20;99.90;;;;;;5102207;27;20424;-69
2023/04/07 07:27:06;;;;;;;26.20;16.35;;;8.10;99.90;;;;;;5105328;27;20039;-69
2023/04/07 07:29:32;;;;;;;23.10;14.80;;;8.20;99.90;;;;;;5102937;27;20069;-69
2023/04/07 07:31:57;;;;;;;21.73;14.50;;;8.20;99.90;;;;;;5104037;28;20038;-68
2023/04/07 07:34:23;;;;;;;23.30;14.88;;;8.20;99.90;;;;;;5102371;27;20035;-69
2023/04/07 07:36:48;;;;;;;24.67;15.95;;;8.20;99.90;;;;;;5105379;27;20091;-69
2023/04/07 07:39:14;;;;;;;26.33;15.35;;;8.30;99.90;;;;;;5104166;27;20084;-70
2023/04/07 07:41:40;;;;;;;19.58;14.00;;;8.30;99.90;;;;;;5106887;28;20040;-69
2023/04/07 07:44:06;;;;;;;19.70;13.50;;;8.30;99.90;;;;;;5104939;28;20546;-68
2023/04/07 07:46:31;;;;;;;24.20;14.82;;;8.30;99.90;;;;;;5105096;28;20126;-67
2023/04/07 07:48:57;;;;;;;20.92;13.43;;;8.50;99.90;;;;;;5104426;28;20027;-69
2023/04/07 07:51:22;;;;;;;21.20;13.70;;;8.50;99.90;;;;;;5102877;28;20797;-69
2023/04/07 07:53:48;;;;;;;19.77;13.15;;;8.60;99.90;;;;;;5100798;27;20035;-69
2023/04/07 07:56:13;;;;;;;20.65;13.80;;;8.70;99.90;;;;;;5102431;28;20043;-69
2023/04/07 07:58:39;;;;;;;21.67;13.88;;;8.80;99.90;;;;;;5101153;28;20042;-69
2023/04/07 08:01:05;;;;;;;25.38;14.38;;;9.00;99.90;;;;;;5106588;28;20047;-69
2023/04/07 08:03:30;;;;;;;17.92;12.85;;;9.20;99.90;;;;;;5106326;28;20031;-69
2023/04/07 08:05:56;;;;;;;19.42;12.13;;;9.40;99.90;;;;;;5105415;28;20031;-70
2023/04/07 08:08:21;;;;;;;19.02;12.35;;;9.50;99.90;;;;;;5093653;28;20035;-70
2023/04/07 08:10:47;;;;;;;22.33;13.43;;;9.60;99.90;;;;;;5104053;28;20043;-70
2023/04/07 08:13:13;;;;;;;20.42;11.88;;;9.60;99.90;;;;;;5100273;27;20546;-69
2023/04/07 08:15:39;;;;;;;19.52;12.68;;;9.70;99.90;;;;;;5125300;27;20042;-70
2023/04/07 08:18:05;;;;;;;16.33;11.43;;;9.70;99.90;;;;;;5099016;27;20042;-70
2023/04/07 08:20:31;;;;;;;18.60;11.98;;;9.70;99.90;;;;;;5101619;28;20087;-70
2023/04/07 08:22:57;;;;;;;17.35;11.52;;;9.70;99.90;;;;;;5103623;28;20039;-70
2023/04/07 08:25:23;;;;;;;14.30;10.55;;;9.70;99.90;;;;;;5106587;28;20476;-70
2023/04/07 08:27:48;;;;;;;15.25;10.40;;;9.70;99.90;;;;;;5103041;27;20096;-70
2023/04/07 08:30:14;;;;;;;13.02;9.70;;;9.70;99.90;;;;;;5098416;28;20027;-70
2023/04/07 08:32:41;;;;;;;14.52;10.05;;;9.70;99.90;;;;;;5102909;28;20044;-70
2023/04/07 08:35:07;;;;;;;12.85;9.13;;;9.70;99.90;;;;;;5105517;28;20039;-70
2023/04/07 08:37:33;;;;;;;10.95;8.40;;;9.70;99.90;;;;;;5110736;27;20050;-69
2023/04/07 08:39:59;;;;;;;11.35;8.88;;;9.60;99.90;;;;;;5114899;27;20130;-70
2023/04/07 08:42:28;;;;;;;11.65;9.20;;;9.60;99.90;;;;;;5125226;27;20035;-69
2023/04/07 08:45:01;;;;;;;13.10;10.35;;;9.60;99.90;;;;;;5104203;27;20089;-69
2023/04/07 08:47:29;;;;;;;14.13;10.65;;;9.60;99.90;;;;;;5112686;27;20039;-69
2023/04/07 08:49:59;;;;;;;14.90;10.75;;;9.60;99.90;;;;;;5109154;27;20122;-69
2023/04/07 08:52:43;;;;;;;16.05;11.80;;;9.60;99.90;;;;;;5108289;27;20040;-70
2023/04/07 08:55:09;;;;;;;16.75;12.65;;;9.60;99.90;;;;;;5096127;27;20040;-70
2023/04/07 08:57:36;;;;;;;18.80;13.45;;;9.70;99.90;;;;;;5083142;27;20047;-69
2023/04/07 09:00:05;;;;;;;18.83;13.50;;;9.70;99.90;;;;;;5111906;27;20046;-69
2023/04/07 09:02:43;;;;;;;21.58;15.10;;;9.70;99.90;;;;;;5114506;27;20092;-69
2023/04/07 09:05:10;;;;;;;21.08;14.82;;;9.80;99.90;;;;;;5115061;27;20546;-70
2023/04/07 09:07:37;;;;;;;20.55;14.60;;;9.80;99.90;;;;;;5110239;27;20239;-70
2023/04/07 09:10:04;;;;;;;23.05;15.38;;;9.90;99.90;;;;;;5112230;27;20398;-69
2023/04/07 09:12:30;;;;;;;19.30;14.25;;;10.00;99.90;;;;;;5114207;27;20535;-69
2023/04/07 09:14:56;;;;;;;17.73;13.40;;;10.10;99.90;;;;;;5100974;27;20043;-64
2023/04/07 09:17:23;;;;;;;22.75;14.98;;;10.30;99.90;;;;;;5107904;27;20039;-63
2023/04/07 09:19:49;;;;;;;21.67;16.40;;;10.40;99.90;;;;;;5121887;27;20035;-62
2023/04/07 09:22:44;;;;;;;20.73;14.45;;;10.40;99.90;;;;;;5123148;27;20482;-62
2023/04/07 09:25:21;;;;;;;20.45;15.00;;;10.60;99.90;;;;;;5105920;27;20095;-63
2023/04/07 09:28:01;;;;;;;23.10;15.63;;;10.60;99.90;;;;;;5106760;27;20042;-63
2023/04/07 09:30:28;;;;;;;20.90;15.35;;;10.60;99.90;;;;;;5105966;27;20096;-63
2023/04/07 09:32:53;;;;;;;18.95;14.13;;;10.60;99.90;;;;;;5112244;27;20039;-63
2023/04/07 09:35:21;;;;;;;20.42;14.52;;;10.60;99.90;;;;;;5123094;27;20043;-62
2023/04/07 09:38:07;;;;;;;28.25;15.30;;;10.70;99.90;;;;;;5111888;27;20393;-63
2023/04/07 09:40:33;;;;;;;27.80;13.85;;;10.70;99.90;;;;;;5095946;27;20437;-63
2023/04/07 09:42:59;;;;;;;17.88;12.48;;;10.80;99.90;;;;;;5109722;27;20043;-62
2023/04/07 09:45:28;;;;;;;16.45;11.90;;;10.90;99.90;;;;;;5124479;27;20043;-63
2023/04/07 09:47:54;;;;;;;17.05;12.63;;;11.10;99.90;;;;;;5108016;27;20435;-69
2023/04/07 09:50:34;;;;;;;16.67;12.82;;;11.20;99.90;;;;;;5111446;27;20039;-66
2023/04/07 09:56:41;;;;;;;14.20;10.45;;;11.40;99.90;;;;;;5122615;27;20050;-66
2023/04/07 09:59:08;;;;;;;16.13;11.30;;;11.50;99.90;;;;;;5125404;27;20472;-66
2023/04/07 10:01:34;;;;;;;13.13;10.43;;;11.60;99.90;;;;;;5102995;27;20056;-66
2023/04/07 10:04:00;;;;;;;13.35;10.90;;;11.60;99.90;;;;;;5097889;27;20043;-66
2023/04/07 10:06:26;;;;;;;14.75;11.32;;;11.60;99.90;;;;;;5103182;27;20494;-66
2023/04/07 10:08:52;;;;;;;17.85;12.70;;;11.70;99.90;;;;;;5108995;27;20031;-66
2023/04/07 10:11:17;;;;;;;16.50;11.88;;;11.70;99.90;;;;;;5113626;27;21782;-65
2023/04/07 10:13:43;;;;;;;14.02;10.73;;;11.70;99.90;;;;;;5115015;27;20047;-65
2023/04/07 10:16:09;;;;;;;13.65;10.90;;;11.80;99.90;;;;;;5107613;27;20481;-67
2023/04/07 10:18:35;;;;;;;14.40;11.13;;;11.80;99.90;;;;;;5113406;27;20043;-66
2023/04/07 10:21:06;;;;;;;13.45;10.63;;;11.90;99.90;;;;;;5114791;27;20142;-66
2023/04/07 10:23:56;;;;;;;13.52;11.13;;;12.00;99.90;;;;;;5101662;27;20046;-66
2023/04/07 10:26:27;;;;;;;14.25;11.15;;;11.90;99.90;;;;;;5107311;27;20042;-66
2023/04/07 10:29:03;;;;;;;17.92;14.02;;;12.00;99.90;;;;;;5104569;27;20027;-67
2023/04/07 10:31:30;;;;;;;16.77;12.70;;;11.90;99.90;;;;;;5107513;27;20039;-66
2023/04/07 10:33:56;;;;;;;17.42;12.57;;;11.70;99.90;;;;;;5108197;27;20043;-66
2023/04/07 10:36:22;;;;;;;16.73;12.23;;;11.50;99.90;;;;;;5104499;27;20092;-66
2023/04/07 10:39:06;;;;;;;15.45;11.77;;;11.50;99.90;;;;;;5122456;27;20424;-65
2023/04/07 10:41:35;;;;;;;14.85;11.73;;;11.60;99.90;;;;;;5108145;27;20035;-66
2023/04/07 10:44:05;;;;;;;16.23;12.05;;;11.60;99.90;;;;;;5119153;27;20039;-65
2023/04/07 10:46:50;;;;;;;13.90;11.32;;;11.60;99.90;;;;;;5103568;27;20565;-65
2023/04/07 10:49:17;;;;;;;14.15;10.77;;;11.50;99.90;;;;;;5109246;27;20072;-65
2023/04/07 10:51:42;;;;;;;14.55;12.00;;;11.50;99.90;;;;;;5101637;27;20382;-66
2023/04/07 10:54:22;;;;;;;13.13;10.40;;;11.50;99.90;;;;;;5104613;27;20057;-65
2023/04/07 10:57:08;;;;;;;15.70;11.63;;;11.60;99.90;;;;;;5104778;27;20385;-65
2023/04/07 10:59:35;;;;;;;13.20;11.30;;;11.70;99.90;;;;;;5101179;27;20043;-65
2023/04/07 11:02:16;;;;;;;14.02;10.88;;;11.70;99.90;;;;;;5114040;27;20043;-66
2023/04/07 11:04:44;;;;;;;14.85;11.93;;;11.80;99.90;;;;;;5114069;27;20047;-65
2023/04/07 11:07:10;;;;;;;14.27;11.07;;;11.80;99.90;;;;;;5132111;27;20511;-66
2023/04/07 11:09:36;;;;;;;13.60;10.63;;;11.80;99.90;;;;;;5103767;27;20047;-66
2023/04/07 11:12:02;;;;;;;15.65;10.82;;;11.80;99.90;;;;;;5114229;27;20482;-65
2023/04/07 11:14:29;;;;;;;12.70;10.45;;;11.80;99.90;;;;;;5092437;28;20032;-65
2023/04/07 11:16:56;;;;;;;12.93;10.50;;;11.80;99.90;;;;;;5106331;27;20094;-65
2023/04/07 11:19:22;;;;;;;12.27;10.20;;;11.90;99.90;;;;;;5105406;27;20135;-65
2023/04/07 11:21:48;;;;;;;11.98;9.68;;;12.00;99.90;;;;;;5101742;27;20102;-65
2023/04/07 11:24:31;;;;;;;11.70;10.10;;;12.10;99.90;;;;;;5103878;27;20489;-66
2023/04/07 11:26:57;;;;;;;10.82;9.45;;;12.20;99.90;;;;;;5111305;27;20469;-65
2023/04/07 11:29:30;;;;;;;11.38;8.45;;;12.20;99.90;;;;;;5102929;28;20042;-64
2023/04/07 11:31:58;;;;;;;10.05;7.93;;;12.20;99.90;;;;;;5100585;28;20126;-65
2023/04/07 11:34:33;;;;;;;10.43;8.30;;;12.10;99.90;;;;;;5106290;28;20069;-66
2023/04/07 11:37:18;;;;;;;12.20;9.10;;;12.00;99.90;;;;;;5109206;28;20477;-65
2023/04/07 11:39:46;;;;;;;10.05;8.90;;;12.10;99.90;;;;;;5119082;27;20110;-65
2023/04/07 11:42:12;;;;;;;10.80;8.82;;;12.10;99.90;;;;;;5110004;28;20092;-65
2023/04/07 11:44:45;;;;;;;9.25;7.85;;;12.30;99.90;;;;;;5125523;27;20043;-64
2023/04/07 11:47:10;;;;;;;9.48;7.82;;;12.40;99.90;;;;;;5112952;28;20031;-65
2023/04/07 11:49:45;;;;;;;8.88;7.28;;;12.40;99.90;;;;;;5099315;28;20102;-66
2023/04/07 11:52:10;;;;;;;9.05;7.35;;;12.30;99.90;;;;;;5107690;28;20050;-65
2023/04/07 11:54:42;;;;;;;10.20;7.35;;;12.30;99.90;;;;;;5109970;27;20043;-65
2023/04/07 11:57:12;;;;;;;8.52;6.95;;;12.20;99.90;;;;;;5107853;27;20035;-64
2023/04/07 11:59:38;;;;;;;6.88;6.00;;;12.30;99.90;;;;;;5103795;28;20474;-64
2023/04/07 12:02:04;;;;;;;7.65;5.90;;;12.40;99.90;;;;;;5103803;28;20068;-65
2023/04/07 12:04:30;;;;;;;8.73;6.15;;;12.40;99.90;;;;;;5106202;28;20039;-65
2023/04/07 12:07:06;;;;;;;8.95;6.80;;;12.50;99.90;;;;;;5108912;28;20043;-65
2023/04/07 12:09:34;;;;;;;7.82;6.88;;;12.70;99.90;;;;;;5110022;27;20039;-65
2023/04/07 12:12:01;;;;;;;9.32;7.15;;;12.80;99.90;;;;;;5128255;27;20039;-64
2023/04/07 12:14:27;;;;;;;10.95;7.57;;;12.90;99.90;;;;;;5107069;27;20630;-64
2023/04/07 12:16:57;;;;;;;9.07;7.40;;;12.90;99.90;;;;;;5111205;27;20485;-65
2023/04/07 12:19:25;;;;;;;9.23;7.30;;;13.00;99.90;;;;;;5125985;27;20439;-65
2023/04/07 12:21:51;;;;;;;8.93;7.13;;;13.00;99.90;;;;;;5110446;27;20103;-65
2023/04/07 12:24:16;;;;;;;8.85;6.65;;;13.00;99.90;;;;;;5108698;27;20643;-64
2023/04/07 12:26:42;;;;;;;7.63;6.50;;;13.00;99.90;;;;;;5111286;27;20039;-64
2023/04/07 12:29:07;;;;;;;7.95;6.85;;;13.10;99.90;;;;;;5124647;27;20038;-64
2023/04/07 12:31:33;;;;;;;9.50;7.18;;;13.10;99.90;;;;;;5110600;27;20470;-64
2023/04/07 12:33:59;;;;;;;10.05;7.70;;;13.00;99.90;;;;;;5129844;27;20039;-64
2023/04/07 12:36:28;;;;;;;8.25;7.10;;;13.10;99.90;;;;;;5115301;27;20088;-64
2023/04/07 12:38:55;;;;;;;8.82;7.45;;;13.20;99.90;;;;;;5106756;27;20054;-64
2023/04/07 12:41:21;;;;;;;9.13;7.47;;;13.30;99.90;;;;;;5112394;27;20051;-65